1855 Tropical Storm NOT_NAMED (1855308N24311)


IBTrACS version v04r00. Visit IBTrACS website for data access.
Please direct all questions to the IBTrACS Q and A forum

Storm track - Intensity - Wind Radii - Intensity Data - Source Data - All data

Summary Information

Storm ID 1855308N24311
Start Nov 3 12Z
Max Intensity 55 kt (Nov 7 06Z), 995 mb (Nov 8 12Z)
End Nov 9 12Z
ATCF IDs
Track status Best track data.

Storm track plot

Map of storm track

Intensity plots

Map of storm track

Radial wind information

No radial wind information for this storm


Position and Intensity Table

BASIN ISO_TIME_________ NATURE LAT LON MLC WIND MLC PRES
degrees north degrees east kts mb
NA 1855-11-03 12:00:00 TS 24.00 -48.80 30
NA 15:00:00 TS 23.99 -49.01 30
NA 18:00:00 TS 24.00 -49.20 30
NA 21:00:00 TS 24.05 -49.36 30
NA 1855-11-04 00:00:00 TS 24.10 -49.50 30
NA 03:00:00 TS 24.11 -49.65 30
NA 06:00:00 TS 24.10 -49.80 30
NA 09:00:00 TS 24.06 -49.89 30
NA 12:00:00 TS 24.10 -50.10 30
NA 15:00:00 TS 24.31 -50.59 30
NA 18:00:00 TS 24.60 -51.20 30
NA 21:00:00 TS 24.85 -51.75 30
NA 1855-11-05 00:00:00 TS 25.10 -52.30 30
NA 03:00:00 TS 25.36 -52.85 32
NA 06:00:00 TS 25.60 -53.40 35
NA 09:00:00 TS 25.80 -53.94 35
NA 12:00:00 TS 26.00 -54.50 35
NA 15:00:00 TS 26.24 -55.10 35
NA 18:00:00 TS 26.50 -55.70 35
NA 21:00:00 TS 26.75 -56.26 35
NA 1855-11-06 00:00:00 TS 27.00 -56.80 35
NA 03:00:00 TS 27.25 -57.35 40
NA 06:00:00 TS 27.50 -57.90 45
NA 09:00:00 TS 27.75 -58.45 45
NA 12:00:00 TS 28.00 -59.00 45
NA 15:00:00 TS 28.25 -59.56 45
NA 18:00:00 TS 28.50 -60.10 45
NA 21:00:00 TS 28.75 -60.61 45
NA 1855-11-07 00:00:00 TS 29.00 -61.10 45
NA 03:00:00 TS 29.26 -61.60 50
NA 06:00:00 TS 29.50 -62.10 55
NA 09:00:00 TS 29.69 -62.62 55
NA 12:00:00 TS 29.90 -63.10 55
NA 15:00:00 TS 30.23 -63.48 55
NA 18:00:00 TS 30.60 -63.80 55
NA 21:00:00 TS 30.91 -64.10 55
NA 1855-11-08 00:00:00 TS 31.20 -64.40 55
NA 03:00:00 TS 31.49 -64.75 55
NA 06:00:00 TS 31.80 -65.10 55
NA 09:00:00 TS 32.12 -65.43 55
NA 12:00:00 TS 32.50 -65.70 55 995
NA 15:00:00 TS 32.98 -65.91 55
NA 18:00:00 TS 33.50 -66.00 55
NA 21:00:00 TS 34.00 -65.98 50
NA 1855-11-09 00:00:00 ET 34.50 -65.80 45
NA 03:00:00 ET 35.00 -65.44 40
NA 06:00:00 ET 35.50 -65.00 35
NA 09:00:00 ET 36.00 -64.63 35
NA 12:00:00 ET 36.50 -64.30 35

Source Information

Agency Information
USA
TOKYO
CMA
HKO
NEWDELHI
REUNION
BOM
NADI
WELLINGTON
DS824
TD9636
TD9635
NEUMANN
MLC

All available IBTrACS Data

SEASON BASIN SUBBASIN ISO_TIME_________ NATURE LAT LON DIST2LAND LANDFALL IFLAG USA SSHS MLC LAT MLC LON MLC CLASS MLC WIND MLC PRES STORM SPEED STORM DIR
Year degrees north degrees east km km 1 degrees north degrees east kts mb kts degrees
1855 NA NA 1855-11-03 12:00:00 TS 24.00 -48.80 1848 1829 _____________O -1 24.00 -48.80 TD 30 4 266
1855 NA NA 15:00:00 TS 23.99 -49.01 1829 1809 _____________P -1 23.99 -49.01 TD 30 4 270
1855 NA NA 18:00:00 TS 24.00 -49.20 1809 1800 _____________O -1 24.00 -49.20 TD 30 3 281
1855 NA NA 21:00:00 TS 24.05 -49.36 1790 1784 _____________P -1 24.05 -49.36 TD 30 3 290
1855 NA NA 1855-11-04 00:00:00 TS 24.10 -49.50 1784 1774 _____________O -1 24.10 -49.50 TD 30 3 282
1855 NA NA 03:00:00 TS 24.11 -49.65 1764 1755 _____________P -1 24.11 -49.65 TD 30 3 270
1855 NA NA 06:00:00 TS 24.10 -49.80 1755 1745 _____________O -1 24.10 -49.80 TD 30 2 258
1855 NA NA 09:00:00 TS 24.06 -49.89 1745 1726 _____________P -1 24.06 -49.89 TD 30 3 270
1855 NA NA 12:00:00 TS 24.10 -50.10 1726 1685 _____________O -1 24.10 -50.10 TD 30 7 291
1855 NA NA 15:00:00 TS 24.31 -50.59 1685 1641 _____________P -1 24.31 -50.59 TD 30 11 297
1855 NA NA 18:00:00 TS 24.60 -51.20 1641 1603 _____________O -1 24.60 -51.20 TD 30 12 297
1855 NA NA 21:00:00 TS 24.85 -51.75 1594 1562 _____________P -1 24.85 -51.75 TD 30 11 297
1855 NA NA 1855-11-05 00:00:00 TS 25.10 -52.30 1562 1528 _____________O -1 25.10 -52.30 TD 30 11 297
1855 NA NA 03:00:00 TS 25.36 -52.85 1524 1491 _____________P -1 25.36 -52.85 TD 32 11 297
1855 NA NA 06:00:00 TS 25.60 -53.40 1491 1460 _____________O -1 25.60 -53.40 TS 35 11 294
1855 NA NA 09:00:00 TS 25.80 -53.94 1460 1422 _____________P -1 25.80 -53.94 TS 35 11 292
1855 NA NA 12:00:00 TS 26.00 -54.50 1422 1386 _____________O -1 26.00 -54.50 TS 35 11 293
1855 NA NA 15:00:00 TS 26.24 -55.10 1386 1360 _____________P -1 26.24 -55.10 TS 35 12 295
1855 NA NA 18:00:00 TS 26.50 -55.70 1360 1337 _____________O -1 26.50 -55.70 TS 35 12 296
1855 NA NA 21:00:00 TS 26.75 -56.26 1330 1316 _____________P -1 26.75 -56.26 TS 35 11 297
1855 NA NA 1855-11-06 00:00:00 TS 27.00 -56.80 1317 1299 _____________O -1 27.00 -56.80 TS 35 11 297
1855 NA NA 03:00:00 TS 27.25 -57.35 1292 1283 _____________P -1 27.25 -57.35 TS 40 11 297
1855 NA NA 06:00:00 TS 27.50 -57.90 1285 1273 _____________O -1 27.50 -57.90 TS 45 11 297
1855 NA NA 09:00:00 TS 27.75 -58.45 1267 1262 _____________P -1 27.75 -58.45 TS 45 11 297
1855 NA NA 12:00:00 TS 28.00 -59.00 1266 1259 _____________O -1 28.00 -59.00 TS 45 11 297
1855 NA NA 15:00:00 TS 28.25 -59.56 1254 1254 _____________P -1 28.25 -59.56 TS 45 11 297
1855 NA NA 18:00:00 TS 28.50 -60.10 1259 1255 _____________O -1 28.50 -60.10 TS 45 11 298
1855 NA NA 21:00:00 TS 28.75 -60.61 1258 1258 _____________P -1 28.75 -60.61 TS 45 10 300
1855 NA NA 1855-11-07 00:00:00 TS 29.00 -61.10 1269 1266 _____________O -1 29.00 -61.10 TS 45 10 300
1855 NA NA 03:00:00 TS 29.26 -61.60 1283 1277 _____________P -1 29.26 -61.60 TS 50 10 300
1855 NA NA 06:00:00 TS 29.50 -62.10 1290 1287 _____________O -1 29.50 -62.10 TS 55 10 296
1855 NA NA 09:00:00 TS 29.69 -62.62 1298 1294 _____________P -1 29.69 -62.62 TS 55 10 295
1855 NA NA 12:00:00 TS 29.90 -63.10 1309 1278 _____________O -1 29.90 -63.10 TS 55 9 306
1855 NA NA 15:00:00 TS 30.23 -63.48 1278 1230 _____________P -1 30.23 -63.48 TS 55 9 319
1855 NA NA 18:00:00 TS 30.60 -63.80 1230 1188 _____________O -1 30.60 -63.80 TS 55 9 322
1855 NA NA 21:00:00 TS 30.91 -64.10 1188 1147 _____________P -1 30.91 -64.10 TS 55 8 319
1855 NA NA 1855-11-08 00:00:00 TS 31.20 -64.40 1147 1105 _____________O -1 31.20 -64.40 TS 55 8 316
1855 NA NA 03:00:00 TS 31.49 -64.75 1097 1056 _____________P -1 31.49 -64.75 TS 55 8 315
1855 NA NA 06:00:00 TS 31.80 -65.10 1056 1016 _____________O -1 31.80 -65.10 TS 55 9 317
1855 NA NA 09:00:00 TS 32.12 -65.43 1016 971 _____________P -1 32.12 -65.43 TS 55 9 324
1855 NA NA 12:00:00 TS 32.50 -65.70 971 936 _____________O -1 32.50 -65.70 TS 55 995 10 335
1855 NA NA 15:00:00 TS 32.98 -65.91 932 903 _____________P -1 32.98 -65.91 TS 55 10 346
1855 NA NA 18:00:00 TS 33.50 -66.00 903 887 _____________O -1 33.50 -66.00 TS 55 10 357
1855 NA NA 21:00:00 TS 34.00 -65.98 887 881 _____________P -1 34.00 -65.98 TS 50 10 10
1855 NA NA 1855-11-09 00:00:00 ET 34.50 -65.80 881 842 _____________O -1 34.50 -65.80 EX 45 11 24
1855 NA NA 03:00:00 ET 35.00 -65.44 846 814 _____________P -1 35.00 -65.44 EX 40 12 33
1855 NA NA 06:00:00 ET 35.50 -65.00 814 787 _____________O -1 35.50 -65.00 EX 35 12 33
1855 NA NA 09:00:00 ET 36.00 -64.63 787 758 _____________P -1 36.00 -64.63 EX 35 12 30
1855 NA NA 12:00:00 ET 36.50 -64.30 758 _____________O -1 36.50 -64.30 EX 35 11 28